createdAt,value
2023-01-18T00:01:12.779Z,6.18
2023-01-18T00:03:40.302Z,5.60
2023-01-18T00:06:10.058Z,7.28
2023-01-18T00:08:39.144Z,7.75
2023-01-18T00:11:12.823Z,6.55
2023-01-18T00:13:40.304Z,7.75
2023-01-18T00:16:20.529Z,5.25
2023-01-18T00:18:56.689Z,4.45
2023-01-18T00:21:27.065Z,8.23
2023-01-18T00:23:56.495Z,6.10
2023-01-18T00:26:23.388Z,6.72
2023-01-18T00:28:50.204Z,8.13
2023-01-18T00:31:20.316Z,6.72
2023-01-18T00:33:49.588Z,5.78
2023-01-18T00:36:17.267Z,6.75
2023-01-18T00:38:44.581Z,5.18
2023-01-18T00:41:11.492Z,5.63
2023-01-18T00:43:41.444Z,6.15
2023-01-18T00:46:21.523Z,7.88
2023-01-18T00:48:48.694Z,7.70
2023-01-18T00:51:23.110Z,7.82
2023-01-18T00:53:50.707Z,3.92
2023-01-18T00:56:21.874Z,6.95
2023-01-18T00:58:49.395Z,7.20
2023-01-18T01:01:16.897Z,8.55
2023-01-18T01:04:02.392Z,6.38
2023-01-18T01:06:45.418Z,7.40
2023-01-18T01:09:26.300Z,7.20
2023-01-18T01:12:13.176Z,4.57
2023-01-18T01:15:06.042Z,8.25
2023-01-18T01:17:54.769Z,7.85
2023-01-18T01:20:43.056Z,8.80
2023-01-18T01:23:39.138Z,4.97
2023-01-18T01:26:08.075Z,7.35
2023-01-18T01:28:35.877Z,5.78
2023-01-18T01:31:06.503Z,8.63
2023-01-18T01:33:35.582Z,8.65
2023-01-18T01:36:11.157Z,6.75
2023-01-18T01:38:39.436Z,8.25
2023-01-18T01:41:11.672Z,12.23
2023-01-18T01:43:51.391Z,12.98
2023-01-18T01:46:42.349Z,5.63
2023-01-18T01:49:40.151Z,8.02
2023-01-18T01:52:15.543Z,7.03
2023-01-18T01:54:58.656Z,6.63
2023-01-18T01:57:35.108Z,9.32
2023-01-18T02:00:21.238Z,11.90
2023-01-18T02:02:55.810Z,8.30
2023-01-18T02:07:49.999Z,8.15
2023-01-18T02:10:17.588Z,8.27
2023-01-18T02:12:49.462Z,9.55
2023-01-18T02:15:18.138Z,8.10
2023-01-18T02:18:06.970Z,8.50
2023-01-18T02:21:15.616Z,6.57
2023-01-18T02:24:40.015Z,7.82
2023-01-18T02:27:20.976Z,5.68
2023-01-18T02:30:08.955Z,6.82
2023-01-18T02:33:08.355Z,9.07
2023-01-18T02:35:44.371Z,6.57
2023-01-18T02:38:26.967Z,9.57
2023-01-18T02:41:22.261Z,14.20
2023-01-18T02:44:12.159Z,6.60
2023-01-18T02:46:40.529Z,9.30
2023-01-18T02:49:23.166Z,7.82
2023-01-18T02:51:50.069Z,6.35
2023-01-18T02:54:24.573Z,6.72
2023-01-18T02:59:38.579Z,7.40
2023-01-18T03:02:12.217Z,4.75
2023-01-18T03:04:45.139Z,11.82
2023-01-18T03:07:17.957Z,8.50
2023-01-18T03:09:45.864Z,8.13
2023-01-18T03:12:46.190Z,6.93
2023-01-18T03:15:57.451Z,9.00
2023-01-18T03:18:31.103Z,7.88
2023-01-18T03:20:57.967Z,7.60
2023-01-18T03:23:38.125Z,9.25
2023-01-18T03:26:10.565Z,8.85
2023-01-18T03:29:05.523Z,16.63
2023-01-18T03:32:07.288Z,8.82
2023-01-18T03:34:40.433Z,9.38
2023-01-18T03:37:14.218Z,14.02
2023-01-18T03:39:55.027Z,10.55
2023-01-18T03:42:43.709Z,12.25
2023-01-18T03:45:30.243Z,11.85
2023-01-18T03:47:57.045Z,10.68
2023-01-18T03:50:53.549Z,10.70
2023-01-18T03:53:54.990Z,7.78
2023-01-18T03:57:04.694Z,8.13
2023-01-18T03:59:38.062Z,11.70
2023-01-18T04:02:07.579Z,10.60
2023-01-18T04:04:34.933Z,9.77
2023-01-18T04:07:01.816Z,9.02
2023-01-18T04:09:28.947Z,7.15
2023-01-18T04:11:55.714Z,8.43
2023-01-18T04:14:22.520Z,7.32
2023-01-18T04:16:49.449Z,9.30
2023-01-18T04:19:17.329Z,7.85
2023-01-18T04:21:44.860Z,8.30
2023-01-18T04:24:11.758Z,7.50
2023-01-18T04:26:38.767Z,8.93
2023-01-18T04:29:05.607Z,7.60
2023-01-18T04:31:32.699Z,5.97
2023-01-18T04:33:59.692Z,11.52
2023-01-18T04:36:28.484Z,7.40
2023-01-18T04:38:55.899Z,10.70
2023-01-18T04:41:23.535Z,10.20
2023-01-18T04:43:50.314Z,10.02
2023-01-18T04:46:17.384Z,12.05
2023-01-18T04:48:44.359Z,8.13
2023-01-18T04:51:15.143Z,9.38
2023-01-18T04:53:42.934Z,5.43
2023-01-18T04:56:10.861Z,6.15
2023-01-18T04:58:38.195Z,9.85
2023-01-18T05:01:09.251Z,4.82
2023-01-18T05:03:38.477Z,14.02
2023-01-18T05:06:14.156Z,7.25
2023-01-18T05:08:42.532Z,9.82
2023-01-18T05:11:12.886Z,9.05
2023-01-18T05:13:40.814Z,9.82
2023-01-18T05:16:14.176Z,7.15
2023-01-18T05:18:41.033Z,11.45
2023-01-18T05:21:07.821Z,9.13
2023-01-18T05:23:34.643Z,7.60
2023-01-18T05:26:02.080Z,9.23
2023-01-18T05:28:29.206Z,9.60
2023-01-18T05:30:56.316Z,8.95
2023-01-18T05:33:23.690Z,9.13
2023-01-18T05:35:54.153Z,9.40
2023-01-18T05:38:22.986Z,11.15
2023-01-18T05:40:52.940Z,8.00
2023-01-18T05:43:22.185Z,8.45
2023-01-18T05:45:49.390Z,13.98
2023-01-18T05:48:16.899Z,6.80
2023-01-18T05:50:46.527Z,3.42
2023-01-18T05:53:16.641Z,4.60
2023-01-18T05:55:44.728Z,10.00
2023-01-18T05:58:12.015Z,2.60
2023-01-18T06:00:38.781Z,4.55
2023-01-18T06:03:05.556Z,3.08
2023-01-18T06:05:32.335Z,2.08
2023-01-18T06:07:59.701Z,2.10
2023-01-18T06:10:26.500Z,3.45
2023-01-18T06:12:53.325Z,2.00
2023-01-18T06:15:20.129Z,1.70
2023-01-18T06:17:47.282Z,4.57
2023-01-18T06:20:14.663Z,3.95
2023-01-18T06:22:45.995Z,4.63
2023-01-18T06:25:13.173Z,7.57
2023-01-18T06:27:40.046Z,1.92
2023-01-18T06:30:08.580Z,1.05
2023-01-18T06:32:35.448Z,1.95
2023-01-18T06:35:02.337Z,2.78
2023-01-18T06:37:29.181Z,2.97
2023-01-18T06:39:56.012Z,2.78
2023-01-18T06:42:22.824Z,2.72
2023-01-18T06:44:49.638Z,8.55
2023-01-18T06:47:20.036Z,3.47
2023-01-18T06:49:50.668Z,2.78
2023-01-18T06:52:18.324Z,3.95
2023-01-18T06:54:45.146Z,3.33
2023-01-18T06:57:12.498Z,4.35
2023-01-18T06:59:40.361Z,2.40
2023-01-18T07:02:07.814Z,3.97
2023-01-18T07:04:41.646Z,5.00
2023-01-18T07:07:08.626Z,6.55
2023-01-18T07:09:35.639Z,5.50
2023-01-18T07:12:02.858Z,5.50
2023-01-18T07:14:29.633Z,10.27
2023-01-18T07:16:56.428Z,13.50
2023-01-18T07:19:23.303Z,5.45
2023-01-18T07:21:53.845Z,8.35
2023-01-18T07:24:20.976Z,8.32
2023-01-18T07:26:47.895Z,19.60
2023-01-18T07:29:15.050Z,8.48
2023-01-18T07:31:41.925Z,13.77
2023-01-18T07:34:10.773Z,12.55
2023-01-18T07:36:39.426Z,7.22
2023-01-18T07:39:06.816Z,8.63
2023-01-18T07:41:34.302Z,8.15
2023-01-18T07:44:02.255Z,6.85
2023-01-18T07:46:29.461Z,9.90
2023-01-18T07:48:56.346Z,10.30
2023-01-18T07:51:23.461Z,10.05
2023-01-18T07:53:55.247Z,9.50
2023-01-18T07:56:23.845Z,8.70
2023-01-18T07:58:50.924Z,11.95
2023-01-18T08:01:21.704Z,9.00
2023-01-18T08:03:50.168Z,13.88
2023-01-18T08:06:24.919Z,9.48
2023-01-18T08:08:53.127Z,7.88
2023-01-18T08:11:20.383Z,7.93
2023-01-18T08:13:49.445Z,11.38
2023-01-18T08:16:16.700Z,8.88
2023-01-18T08:18:45.641Z,7.47
2023-01-18T08:21:13.618Z,11.25
2023-01-18T08:23:41.319Z,9.05
2023-01-18T08:26:10.268Z,10.48
2023-01-18T08:28:37.307Z,8.52
2023-01-18T08:31:18.442Z,9.18
2023-01-18T08:33:49.062Z,11.13
2023-01-18T08:36:22.842Z,9.15
2023-01-18T08:38:59.390Z,5.15
2023-01-18T08:41:29.075Z,11.68
2023-01-18T08:43:57.433Z,11.68
2023-01-18T08:46:25.691Z,10.88
2023-01-18T08:48:55.601Z,15.57
2023-01-18T08:51:23.868Z,26.00
2023-01-18T08:53:56.727Z,13.55
2023-01-18T08:56:23.752Z,11.13
2023-01-18T08:58:52.374Z,9.48
2023-01-18T09:01:19.433Z,11.70
2023-01-18T09:03:48.127Z,12.35
2023-01-18T09:06:16.904Z,13.35
2023-01-18T09:08:43.985Z,8.85
2023-01-18T09:11:11.048Z,13.25
2023-01-18T09:13:58.593Z,9.70
2023-01-18T09:16:26.942Z,8.38
2023-01-18T09:18:55.561Z,9.65
2023-01-18T09:21:22.503Z,12.27
2023-01-18T09:23:51.066Z,11.20
2023-01-18T09:26:20.366Z,11.82
2023-01-18T09:28:52.643Z,10.27
2023-01-18T09:31:22.545Z,10.52
2023-01-18T09:33:53.695Z,9.50
2023-01-18T09:36:24.185Z,16.25
2023-01-18T09:38:51.041Z,12.95
2023-01-18T09:41:57.148Z,11.40
2023-01-18T09:44:41.353Z,8.45
2023-01-18T09:47:24.822Z,10.03
2023-01-18T09:50:15.534Z,11.25
2023-01-18T09:52:54.367Z,14.40
2023-01-18T09:55:57.215Z,10.52
2023-01-18T09:58:50.201Z,8.25
2023-01-18T10:01:25.484Z,10.88
2023-01-18T10:04:20.934Z,11.30
2023-01-18T10:07:05.687Z,7.78
2023-01-18T10:09:53.833Z,7.15
2023-01-18T10:12:47.296Z,10.57
2023-01-18T10:15:22.583Z,12.00
2023-01-18T10:18:00.694Z,7.00
2023-01-18T10:20:49.980Z,10.35
2023-01-18T10:23:31.607Z,7.28
2023-01-18T10:26:04.207Z,8.32
2023-01-18T10:28:49.286Z,11.38
2023-01-18T10:31:56.227Z,9.05
2023-01-18T10:34:33.243Z,5.68
2023-01-18T10:37:17.767Z,7.55
2023-01-18T10:39:51.628Z,8.45
2023-01-18T10:42:28.779Z,6.78
2023-01-18T10:44:55.639Z,9.35
2023-01-18T10:47:22.463Z,9.60
2023-01-18T10:49:51.505Z,7.55
2023-01-18T10:52:32.548Z,13.15
2023-01-18T10:55:09.301Z,13.32
2023-01-18T10:57:53.609Z,8.07
2023-01-18T11:00:30.933Z,9.17
2023-01-18T11:03:00.400Z,10.05
2023-01-18T11:05:33.246Z,11.18
2023-01-18T11:08:33.382Z,6.90
2023-01-18T11:11:06.922Z,6.90
2023-01-18T11:13:44.852Z,14.20
2023-01-18T11:16:24.409Z,11.57
2023-01-18T11:19:17.913Z,10.50
2023-01-18T11:21:51.694Z,13.73
2023-01-18T11:24:27.141Z,11.20
2023-01-18T11:27:15.278Z,14.75
2023-01-18T11:29:44.808Z,22.95
2023-01-18T11:32:31.092Z,18.55
2023-01-18T11:35:00.183Z,22.88
2023-01-18T11:37:31.439Z,12.05
2023-01-18T11:39:58.421Z,11.48
2023-01-18T11:42:34.552Z,21.85
2023-01-18T11:45:45.545Z,12.65
2023-01-18T11:48:30.943Z,13.35
2023-01-18T11:54:04.673Z,14.13
2023-01-18T11:56:55.928Z,17.52
2023-01-18T11:59:38.323Z,14.00
2023-01-18T12:02:45.579Z,12.77
2023-01-18T12:05:50.060Z,16.75
2023-01-18T12:08:44.448Z,16.10
2023-01-18T12:11:18.817Z,16.23
2023-01-18T12:14:03.635Z,23.25
2023-01-18T12:17:02.121Z,17.60
2023-01-18T12:20:14.494Z,14.27
2023-01-18T12:22:54.500Z,14.40
2023-01-18T12:25:40.020Z,13.55
2023-01-18T12:28:57.932Z,19.17
2023-01-18T12:31:43.544Z,13.13
2023-01-18T12:34:20.619Z,13.95
2023-01-18T12:37:22.396Z,11.95
2023-01-18T12:39:59.167Z,12.82
2023-01-18T12:43:23.585Z,9.45
2023-01-18T12:46:07.256Z,11.38
2023-01-18T12:48:57.110Z,13.95
2023-01-18T12:51:27.620Z,21.10
2023-01-18T12:54:13.635Z,11.52
2023-01-18T12:56:49.022Z,14.55
2023-01-18T12:59:21.255Z,18.25
2023-01-18T13:01:56.232Z,11.57
2023-01-18T13:04:31.936Z,17.83
2023-01-18T13:07:07.638Z,23.20
2023-01-18T13:09:43.891Z,16.08
2023-01-18T13:12:11.843Z,15.32
2023-01-18T13:15:08.274Z,19.60
2023-01-18T13:17:51.060Z,13.15
2023-01-18T13:20:25.883Z,16.20
2023-01-18T13:26:10.232Z,20.65
2023-01-18T13:28:38.327Z,16.17
2023-01-18T13:31:06.505Z,13.40
2023-01-18T13:33:45.648Z,16.98
2023-01-18T13:36:19.757Z,13.40
2023-01-18T13:38:53.445Z,13.70
2023-01-18T13:41:29.553Z,14.90
2023-01-18T13:44:01.495Z,15.82
2023-01-18T13:46:31.751Z,12.32
2023-01-18T13:49:02.853Z,13.25
2023-01-18T13:51:41.744Z,14.88
2023-01-18T13:54:18.625Z,18.38
2023-01-18T13:57:05.694Z,18.55
2023-01-18T13:59:46.775Z,12.43
2023-01-18T14:02:42.014Z,14.50
2023-01-18T14:05:25.805Z,20.80
2023-01-18T14:08:02.305Z,15.85
2023-01-18T14:10:39.292Z,22.33
2023-01-18T14:13:11.727Z,28.20
2023-01-18T14:15:54.854Z,29.10
2023-01-18T14:18:29.281Z,32.42
2023-01-18T14:21:33.620Z,27.67
2023-01-18T14:24:09.788Z,40.60
2023-01-18T14:26:40.581Z,36.90
2023-01-18T14:29:19.271Z,31.63
2023-01-18T14:31:51.779Z,19.83
2023-01-18T14:34:30.777Z,15.40
2023-01-18T14:36:58.051Z,18.88
2023-01-18T14:39:26.063Z,24.40
2023-01-18T14:42:05.304Z,22.02
2023-01-18T14:44:57.769Z,23.02
2023-01-18T14:47:33.633Z,18.30
2023-01-18T14:50:04.713Z,22.38
2023-01-18T14:52:34.565Z,15.52
2023-01-18T14:55:01.593Z,15.55
2023-01-18T14:57:28.396Z,19.75
2023-01-18T15:00:07.629Z,19.40
2023-01-18T15:02:39.189Z,17.60
2023-01-18T15:05:17.967Z,16.50
2023-01-18T15:07:55.990Z,19.20
2023-01-18T15:10:24.365Z,22.65
2023-01-18T15:12:57.292Z,16.00
2023-01-18T15:15:30.761Z,18.15
2023-01-18T15:18:10.526Z,14.82
2023-01-18T15:20:55.277Z,19.25
2023-01-18T15:23:23.356Z,20.35
2023-01-18T15:25:52.819Z,19.85
2023-01-18T15:28:23.953Z,19.20
2023-01-18T15:30:56.237Z,17.05
2023-01-18T15:33:25.953Z,19.55
2023-01-18T15:35:59.082Z,16.95
2023-01-18T15:38:26.045Z,20.15
2023-01-18T15:41:01.237Z,11.93
2023-01-18T15:43:34.576Z,20.08
2023-01-18T15:46:02.615Z,17.33
2023-01-18T15:48:44.989Z,19.88
2023-01-18T15:51:11.886Z,24.52
2023-01-18T15:53:46.209Z,23.00
2023-01-18T15:56:20.438Z,26.45
2023-01-18T15:58:56.106Z,26.15
2023-01-18T16:01:31.991Z,32.22
2023-01-18T16:04:04.176Z,32.10
2023-01-18T16:06:36.090Z,20.00
2023-01-18T16:09:13.831Z,27.17
2023-01-18T16:11:54.461Z,22.52
2023-01-18T16:14:36.289Z,28.00
2023-01-18T16:17:14.326Z,21.48
2023-01-18T16:19:45.163Z,32.40
2023-01-18T16:22:29.615Z,24.38
2023-01-18T16:25:06.419Z,17.70
2023-01-18T16:27:34.448Z,18.88
2023-01-18T16:30:15.047Z,15.98
2023-01-18T16:32:41.869Z,20.50
2023-01-18T16:35:09.982Z,18.08
2023-01-18T16:37:41.487Z,20.63
2023-01-18T16:40:09.748Z,16.55
2023-01-18T16:43:01.848Z,19.35
2023-01-18T16:45:31.031Z,21.33
2023-01-18T16:47:58.028Z,26.48
2023-01-18T16:50:25.776Z,21.77
2023-01-18T16:52:52.692Z,25.20
2023-01-18T16:55:19.936Z,23.58
2023-01-18T16:57:46.757Z,29.33
2023-01-18T17:00:17.217Z,30.90
2023-01-18T17:02:44.120Z,29.33
2023-01-18T17:05:11.657Z,20.52
2023-01-18T17:07:38.497Z,21.00
2023-01-18T17:10:38.129Z,28.85
2023-01-18T17:13:04.955Z,19.63
2023-01-18T17:15:34.810Z,22.77
2023-01-18T17:18:02.755Z,16.23
2023-01-18T17:20:30.587Z,16.38
2023-01-18T17:22:57.806Z,29.80
2023-01-18T17:25:25.261Z,24.88
2023-01-18T17:27:52.786Z,18.42
2023-01-18T17:30:22.382Z,23.80
2023-01-18T17:32:50.605Z,22.77
2023-01-18T17:35:21.879Z,19.08
2023-01-18T17:37:54.390Z,20.52
2023-01-18T17:40:38.701Z,31.15
2023-01-18T17:43:10.783Z,34.70
2023-01-18T17:45:38.310Z,35.42
2023-01-18T17:48:05.785Z,20.73
2023-01-18T17:50:32.582Z,23.92
2023-01-18T17:52:59.618Z,20.17
2023-01-18T17:55:34.283Z,26.83
2023-01-18T17:58:02.479Z,24.98
2023-01-18T18:00:29.448Z,19.63
2023-01-18T18:02:57.612Z,25.63
2023-01-18T18:05:24.909Z,25.27
2023-01-18T18:07:52.145Z,21.25
2023-01-18T18:10:19.287Z,18.90
2023-01-18T18:12:46.589Z,21.98
2023-01-18T18:15:13.877Z,21.42
2023-01-18T18:17:40.810Z,18.20
2023-01-18T18:20:10.913Z,19.10
2023-01-18T18:22:38.585Z,18.90
2023-01-18T18:25:07.350Z,26.15
2023-01-18T18:27:45.506Z,15.25
2023-01-18T18:30:13.538Z,18.65
2023-01-18T18:32:40.417Z,20.75
2023-01-18T18:35:23.096Z,17.02
2023-01-18T18:37:51.148Z,20.52
2023-01-18T18:40:19.074Z,15.10
2023-01-18T18:42:56.489Z,15.95
2023-01-18T18:45:29.024Z,19.35
2023-01-18T18:47:55.776Z,19.73
2023-01-18T18:50:22.628Z,14.63
2023-01-18T18:52:49.475Z,11.80
2023-01-18T18:55:16.363Z,15.15
2023-01-18T18:57:43.312Z,12.18
2023-01-18T19:00:11.162Z,10.77
2023-01-18T19:02:38.277Z,12.18
2023-01-18T19:05:06.591Z,9.95
2023-01-18T19:07:37.377Z,12.38
2023-01-18T19:10:06.066Z,21.30
2023-01-18T19:12:33.223Z,19.15
2023-01-18T19:15:00.230Z,15.07
2023-01-18T19:17:30.860Z,17.05
2023-01-18T19:19:58.947Z,14.55
2023-01-18T19:22:26.334Z,8.30
2023-01-18T19:24:53.151Z,19.10
2023-01-18T19:27:21.433Z,14.68
2023-01-18T19:29:48.589Z,14.25
2023-01-18T19:32:15.663Z,16.80
2023-01-18T19:34:42.687Z,12.38
2023-01-18T19:37:09.571Z,16.55
2023-01-18T19:39:36.545Z,14.98
2023-01-18T19:42:03.487Z,16.35
2023-01-18T19:44:30.336Z,10.07
2023-01-18T19:46:57.474Z,11.93
2023-01-18T19:49:26.590Z,10.45
2023-01-18T19:51:54.885Z,14.63
2023-01-18T19:54:22.350Z,7.28
2023-01-18T19:56:49.706Z,9.20
2023-01-18T19:59:16.651Z,5.60
2023-01-18T20:01:44.785Z,6.10
2023-01-18T20:04:13.409Z,9.63
2023-01-18T20:06:43.497Z,14.68
2023-01-18T20:09:19.541Z,16.13
2023-01-18T20:11:49.163Z,14.88
2023-01-18T20:14:16.116Z,9.38
2023-01-18T20:16:45.633Z,9.38
2023-01-18T20:19:14.499Z,8.57
2023-01-18T20:21:41.338Z,6.90
2023-01-18T20:24:09.409Z,5.03
2023-01-18T20:26:39.612Z,4.18
2023-01-18T20:29:08.731Z,5.03
2023-01-18T20:31:38.597Z,5.35
2023-01-18T20:34:07.470Z,8.13
2023-01-18T20:36:37.705Z,7.10
2023-01-18T20:39:06.076Z,7.32
2023-01-18T20:41:32.893Z,8.20
2023-01-18T20:43:59.796Z,11.82
2023-01-18T20:46:26.910Z,7.05
2023-01-18T20:48:53.692Z,10.40
2023-01-18T20:51:20.678Z,8.60
2023-01-18T20:53:47.648Z,13.77
2023-01-18T20:56:28.286Z,9.40
2023-01-18T20:58:55.887Z,12.60
2023-01-18T21:01:23.013Z,11.50
2023-01-18T21:03:55.271Z,8.10
2023-01-18T21:06:22.146Z,8.90
2023-01-18T21:08:53.014Z,12.20
2023-01-18T21:11:25.425Z,9.23
2023-01-18T21:13:54.848Z,11.77
2023-01-18T21:16:22.182Z,11.07
2023-01-18T21:18:49.799Z,6.03
2023-01-18T21:21:16.658Z,13.93
2023-01-18T21:23:43.414Z,9.95
2023-01-18T21:26:12.165Z,12.18
2023-01-18T21:28:39.773Z,7.35
2023-01-18T21:31:07.101Z,6.65
2023-01-18T21:33:34.480Z,9.60
2023-01-18T21:36:07.707Z,11.00
2023-01-18T21:38:35.709Z,11.35
2023-01-18T21:41:21.385Z,11.32
2023-01-18T21:44:07.157Z,9.90
2023-01-18T21:46:34.395Z,10.80
2023-01-18T21:49:06.765Z,13.82
2023-01-18T21:51:53.372Z,12.48
2023-01-18T21:54:22.282Z,10.50
2023-01-18T21:56:49.292Z,13.05
2023-01-18T21:59:16.061Z,14.65
2023-01-18T22:01:45.610Z,13.23
2023-01-18T22:04:33.733Z,9.60
2023-01-18T22:07:01.141Z,10.50
2023-01-18T22:09:29.982Z,16.58
2023-01-18T22:11:57.654Z,14.25
2023-01-18T22:14:26.033Z,15.95
2023-01-18T22:16:53.597Z,13.75
2023-01-18T22:19:20.569Z,15.27
2023-01-18T22:21:48.666Z,18.60
2023-01-18T22:24:17.199Z,19.75
2023-01-18T22:26:45.374Z,16.92
2023-01-18T22:29:12.770Z,18.73
2023-01-18T22:31:39.902Z,16.05
2023-01-18T22:34:06.847Z,16.10
2023-01-18T22:36:34.473Z,12.18
2023-01-18T22:39:01.289Z,13.75
2023-01-18T22:41:29.978Z,15.25
2023-01-18T22:43:57.418Z,18.00
2023-01-18T22:46:25.020Z,14.68
2023-01-18T22:48:52.164Z,15.40
2023-01-18T22:51:22.769Z,16.75
2023-01-18T22:53:50.625Z,16.13
2023-01-18T22:56:23.722Z,15.85
2023-01-18T22:58:51.987Z,17.00
2023-01-18T23:01:25.522Z,12.98
2023-01-18T23:03:56.130Z,13.93
2023-01-18T23:06:23.354Z,14.10
2023-01-18T23:08:50.613Z,14.77
2023-01-18T23:11:22.299Z,15.68
2023-01-18T23:14:14.094Z,17.13
2023-01-18T23:17:00.420Z,17.27
2023-01-18T23:19:29.718Z,14.10
2023-01-18T23:21:57.960Z,16.00
2023-01-18T23:24:25.963Z,14.80
2023-01-18T23:26:52.960Z,23.50
2023-01-18T23:29:20.558Z,18.55
2023-01-18T23:31:47.828Z,25.33
2023-01-18T23:34:14.659Z,35.40
2023-01-18T23:36:41.463Z,30.55
2023-01-18T23:39:26.874Z,28.23
2023-01-18T23:42:12.242Z,23.23
2023-01-18T23:44:57.534Z,18.50
2023-01-18T23:47:42.920Z,21.10
2023-01-18T23:50:29.468Z,13.95
2023-01-18T23:53:14.869Z,15.77
2023-01-18T23:55:41.664Z,18.73
2023-01-18T23:58:08.564Z,13.75
